Shannon, Illinois
Current Conditions -  °F | °C
As of 7:55 AM on Monday 24 Nov 2014 (Local Time) from KFEP Reporting Station
Haze Haze  
Wind Chill: 25°   Ceiling: 900
Heat Index: 35°   Visibility: 5mi
Dew Point: 34°   Wind: 15mph
Humidity: 97%   Direction: 270°W
Pressure: 29.19"   Gusts: NA
Location:  42.15°N, 89.74°W
Report Text: KFEP 241355Z AUTO 27013KT 5SM BR OVC009 02/01 A2919 RMK AO2 P0001 T00150010
Loading
Personal Weather Stations






























Interactive Weather Map New forecast layout! Learn more

10-Day Weather Forecast

Advertisements
Track Severe Weather on mobile